Decoded Metar for KFDW (FAIRFIELD COUNTY AIRPORT in SC, USA) (IATA:N/A) | Meteo·Mobile Aviation Weather
aviador You're here:

KFDW Decoded Metar

FAIRFIELD COUNTY AIRPORT in SC, USA
Report Time2019-09-21 09:15:00
UTC Time2019-09-21 09:31:48
Flight Rules vfr VFR
WindCalm
Visibility9999 m
Phenomena:N/A
Clouds:N/A
Expected CloudBase > 400 ft AGL from Temp-Dew spread
CeilingNone
Temp16°C (ISA +2)
Dew Point15°C (94% RH)
QNH1025 hPa
Density Alt656 ft
Elevation577 ft
Report Wrong Elevation
Raw Report
KFDW 210915Z AUTO 00000KT 10SM CLR 16/15 A3028 RMK AO1=

Extra information for KFDW:More info

Metar Taf Metar & Taf Last 4 Metars F.Rules Stats Wind Profile Meteogram Temp Stats Airport Information Weather charts Add Link Nearby VenuesMetar ALERT Operation Metar Decoded Social comments

AIRNAV info for KFDW